Time;durP1;ratioP1;P1;durP2;ratioP2;P2;SDS_P1;SDS_P2;PMS_P1;PMS_P2;Temp;Humidity;BMP_temperature;BMP_pressure;BME280_temperature;BME280_humidity;BME280_pressure;Samples;Min_cycle;Max_cycle;Signal;HPM_P1;HPM_P2
2023/12/09 00:00:09;;;;;;;;;;;;;;;;;;5133020;27;20292;-64
2023/12/09 00:02:36;;;;;;;;;;;;;;;;;;5126730;27;19923;-61
2023/12/09 00:05:03;;;;;;;;;;;;;;;;;;5129439;27;19971;-60
2023/12/09 00:07:30;;;;;;;;;;;;;;;;;;5128415;27;20014;-64
2023/12/09 00:09:57;;;;;;;;;;;;;;;;;;5129866;27;19971;-61
2023/12/09 00:12:23;;;;;;;;;;;;;;;;;;5126248;27;20006;-64
2023/12/09 00:14:50;;;;;;;;;;;;;;;;;;5122294;27;20356;-64
2023/12/09 00:17:16;;;;;;;;;;;;;;;;;;5121323;27;20435;-63
2023/12/09 00:19:43;;;;;;;;;;;;;;;;;;5128665;27;20333;-63
2023/12/09 00:22:09;;;;;;;;;;;;;;;;;;5131340;27;20003;-61
2023/12/09 00:24:37;;;;;;;;;;;;;;;;;;5118666;27;20006;-63
2023/12/09 00:27:04;;;;;;;;;;;;;;;;;;5129514;27;19959;-61
2023/12/09 00:29:30;;;;;;;;;;;;;;;;;;5136112;27;19924;-62
2023/12/09 00:31:57;;;;;;;;;;;;;;;;;;5132735;27;19966;-62
2023/12/09 00:34:23;;;;;;;;;;;;;;;;;;5124093;27;19953;-61
2023/12/09 00:36:50;;;;;;;;;;;;;;;;;;5121010;27;19954;-64
2023/12/09 00:39:16;;;;;;;;;;;;;;;;;;5130475;27;20014;-64
2023/12/09 00:41:44;;;;;;;;;;;;;;;;;;5122115;27;20017;-64
2023/12/09 00:44:11;;;;;;;;;;;;;;;;;;5125510;27;20022;-59
2023/12/09 00:46:37;;;;;;;;;;;;;;;;;;5117925;28;20003;-62
2023/12/09 00:49:03;;;;;;;;;;;;;;;;;;5125978;27;20014;-63
2023/12/09 00:51:30;;;;;;;;;;;;;;;;;;5121715;28;19967;-61
2023/12/09 00:53:56;;;;;;;;;;;;;;;;;;5125523;28;19963;-60
2023/12/09 00:56:23;;;;;;;;;;;;;;;;;;5123407;28;19959;-61
2023/12/09 00:58:51;;;;;;;;;;;;;;;;;;5123835;28;20030;-60
2023/12/09 01:01:17;;;;;;;;;;;;;;;;;;5128015;28;20335;-61
2023/12/09 01:03:44;;;;;;;;;;;;;;;;;;5132507;28;20022;-62
2023/12/09 01:06:10;;;;;;;;;;;;;;;;;;5124904;28;19971;-62
2023/12/09 01:08:37;;;;;;;;;;;;;;;;;;5121188;28;20002;-62
2023/12/09 01:11:03;;;;;;;;;;;;;;;;;;5120055;28;19968;-62
2023/12/09 01:13:30;;;;;;;;;;;;;;;;;;5119443;28;19985;-60
2023/12/09 01:15:58;;;;;;;;;;;;;;;;;;5131029;28;20083;-62
2023/12/09 01:18:24;;;;;;;;;;;;;;;;;;5117357;28;19993;-61
2023/12/09 01:20:51;;;;;;;;;;;;;;;;;;5132117;28;20013;-62
2023/12/09 01:23:17;;;;;;;;;;;;;;;;;;5131042;28;19930;-62
2023/12/09 01:25:44;;;;;;;;;;;;;;;;;;5124288;28;20381;-60
2023/12/09 01:28:10;;;;;;;;;;;;;;;;;;5123688;28;19924;-60
2023/12/09 01:30:36;;;;;;;;;;;;;;;;;;5125358;28;19967;-60
2023/12/09 01:33:04;;;;;;;;;;;;;;;;;;5138609;27;20021;-62
2023/12/09 01:35:31;;;;;;;;;;;;;;;;;;5126928;28;20031;-60
2023/12/09 01:37:57;;;;;;;;;;;;;;;;;;5130067;28;19971;-62
2023/12/09 01:40:24;;;;;;;;;;;;;;;;;;5128376;27;19977;-62
2023/12/09 01:42:50;;;;;;;;;;;;;;;;;;5127337;27;20019;-58
2023/12/09 01:45:16;;;;;;;;;;;;;;;;;;5130538;27;20115;-61
2023/12/09 01:47:43;;;;;;;;;;;;;;;;;;5132354;27;19974;-59
2023/12/09 01:50:11;;;;;;;;;;;;;;;;;;5128425;27;20014;-61
2023/12/09 01:52:38;;;;;;;;;;;;;;;;;;5141064;27;19923;-62
2023/12/09 01:55:05;;;;;;;;;;;;;;;;;;5136040;27;19977;-60
2023/12/09 01:57:31;;;;;;;;;;;;;;;;;;5135935;27;20014;-62
2023/12/09 01:59:58;;;;;;;;;;;;;;;;;;5135658;27;20483;-59
2023/12/09 02:02:24;;;;;;;;;;;;;;;;;;5136139;27;20418;-60
2023/12/09 02:04:52;;;;;;;;;;;;;;;;;;5122850;27;19989;-60
2023/12/09 02:07:20;;;;;;;;;;;;;;;;;;5142108;27;19963;-60
2023/12/09 02:09:46;;;;;;;;;;;;;;;;;;5135188;27;19984;-60
2023/12/09 02:12:16;;;;;;;;;;;;;;;;;;5135960;27;20026;-61
2023/12/09 02:14:47;;;;;;;;;;;;;;;;;;5129113;27;20367;-61
2023/12/09 02:17:14;;;;;;;;;;;;;;;;;;5142672;27;19963;-59
2023/12/09 02:19:40;;;;;;;;;;;;;;;;;;5118452;27;19930;-60
2023/12/09 02:22:08;;;;;;;;;;;;;;;;;;5126878;27;20080;-60
2023/12/09 02:24:36;;;;;;;;;;;;;;;;;;5129160;27;20371;-62
2023/12/09 02:27:05;;;;;;;;;;;;;;;;;;5134739;27;20022;-61
2023/12/09 02:29:34;;;;;;;;;;;;;;;;;;5135416;27;19923;-60
2023/12/09 02:32:03;;;;;;;;;;;;;;;;;;5135131;27;20461;-61
2023/12/09 02:34:31;;;;;;;;;;;;;;;;;;5135067;27;19928;-62
2023/12/09 02:36:58;;;;;;;;;;;;;;;;;;5135374;27;20014;-60
2023/12/09 02:39:25;;;;;;;;;;;;;;;;;;5130688;27;19924;-59
2023/12/09 02:41:53;;;;;;;;;;;;;;;;;;5128270;27;19988;-60
2023/12/09 02:44:20;;;;;;;;;;;;;;;;;;5134880;27;20014;-61
2023/12/09 02:46:54;;;;;;;;;;;;;;;;;;5129130;27;20363;-59
2023/12/09 02:49:20;;;;;;;;;;;;;;;;;;5128811;27;20026;-62
2023/12/09 02:51:47;;;;;;;;;;;;;;;;;;5133224;27;19989;-62
2023/12/09 02:54:13;;;;;;;;;;;;;;;;;;5141908;27;20317;-61
2023/12/09 02:56:40;;;;;;;;;;;;;;;;;;5133685;27;20372;-59
2023/12/09 02:59:08;;;;;;;;;;;;;;;;;;5134831;27;20369;-60
2023/12/09 03:01:34;;;;;;;;;;;;;;;;;;5133619;27;20021;-59
2023/12/09 03:04:01;;;;;;;;;;;;;;;;;;5134758;27;19969;-60
2023/12/09 03:06:27;;;;;;;;;;;;;;;;;;5134667;27;20286;-61
2023/12/09 03:08:54;;;;;;;;;;;;;;;;;;5134702;27;20390;-61
2023/12/09 03:11:20;;;;;;;;;;;;;;;;;;5134589;27;20402;-59
2023/12/09 03:13:46;;;;;;;;;;;;;;;;;;5134663;27;20405;-60
2023/12/09 03:16:14;;;;;;;;;;;;;;;;;;5134439;27;19990;-61
2023/12/09 03:18:41;;;;;;;;;;;;;;;;;;5134315;27;19923;-62
2023/12/09 03:21:07;;;;;;;;;;;;;;;;;;5134037;27;19959;-62
2023/12/09 03:23:34;;;;;;;;;;;;;;;;;;5134424;27;20010;-60
2023/12/09 03:26:00;;;;;;;;;;;;;;;;;;5134150;27;20483;-61
2023/12/09 03:28:27;;;;;;;;;;;;;;;;;;5134126;27;20014;-62
2023/12/09 03:30:53;;;;;;;;;;;;;;;;;;5134063;27;19974;-62
2023/12/09 03:33:21;;;;;;;;;;;;;;;;;;5133868;27;19971;-62
2023/12/09 03:35:47;;;;;;;;;;;;;;;;;;5125572;27;20010;-59
2023/12/09 03:38:14;;;;;;;;;;;;;;;;;;5133999;27;20008;-62
2023/12/09 03:40:40;;;;;;;;;;;;;;;;;;5127369;27;19927;-62
2023/12/09 03:43:07;;;;;;;;;;;;;;;;;;5133596;27;19974;-60
2023/12/09 03:45:33;;;;;;;;;;;;;;;;;;5133665;27;20019;-62
2023/12/09 03:48:00;;;;;;;;;;;;;;;;;;5120435;27;20423;-62
2023/12/09 03:50:27;;;;;;;;;;;;;;;;;;5133476;27;20006;-60
2023/12/09 03:52:54;;;;;;;;;;;;;;;;;;5133937;27;19923;-62
2023/12/09 03:55:20;;;;;;;;;;;;;;;;;;5128664;27;19966;-62
2023/12/09 03:57:47;;;;;;;;;;;;;;;;;;5129781;27;19982;-63
2023/12/09 04:00:14;;;;;;;;;;;;;;;;;;5133763;27;20079;-58
2023/12/09 04:02:40;;;;;;;;;;;;;;;;;;5133897;27;20386;-62
2023/12/09 04:05:07;;;;;;;;;;;;;;;;;;5134022;27;20398;-61
2023/12/09 04:07:35;;;;;;;;;;;;;;;;;;5134086;27;19966;-60
2023/12/09 04:10:03;;;;;;;;;;;;;;;;;;5133479;27;20926;-63
2023/12/09 04:12:30;;;;;;;;;;;;;;;;;;5133282;27;19923;-61
2023/12/09 04:14:57;;;;;;;;;;;;;;;;;;5132972;27;19923;-63
2023/12/09 04:17:23;;;;;;;;;;;;;;;;;;5133375;27;19930;-62
2023/12/09 04:19:51;;;;;;;;;;;;;;;;;;5132751;27;19934;-62
2023/12/09 04:22:18;;;;;;;;;;;;;;;;;;5132003;27;19975;-62
2023/12/09 04:24:46;;;;;;;;;;;;;;;;;;5133007;27;20022;-61
2023/12/09 04:27:12;;;;;;;;;;;;;;;;;;5132901;27;20021;-63
2023/12/09 04:29:39;;;;;;;;;;;;;;;;;;5133243;27;19924;-62
2023/12/09 04:32:05;;;;;;;;;;;;;;;;;;5124969;27;20415;-61
2023/12/09 04:34:32;;;;;;;;;;;;;;;;;;5133307;27;20044;-62
2023/12/09 04:37:00;;;;;;;;;;;;;;;;;;5132871;27;20041;-62
2023/12/09 04:39:27;;;;;;;;;;;;;;;;;;5132618;27;19924;-62
2023/12/09 04:41:55;;;;;;;;;;;;;;;;;;5133128;27;19924;-62
2023/12/09 04:44:23;;;;;;;;;;;;;;;;;;5132614;28;20391;-62
2023/12/09 04:46:49;;;;;;;;;;;;;;;;;;5132862;28;19966;-62
2023/12/09 04:49:16;;;;;;;;;;;;;;;;;;5133316;28;20367;-62
2023/12/09 04:51:42;;;;;;;;;;;;;;;;;;5135949;28;19967;-60
2023/12/09 04:54:09;;;;;;;;;;;;;;;;;;5137167;28;19970;-59
2023/12/09 04:56:35;;;;;;;;;;;;;;;;;;5138082;28;19981;-59
2023/12/09 04:59:04;;;;;;;;;;;;;;;;;;5137782;28;20433;-58
2023/12/09 05:01:30;;;;;;;;;;;;;;;;;;5137814;28;20074;-58
2023/12/09 05:03:57;;;;;;;;;;;;;;;;;;5137368;28;19978;-60
2023/12/09 05:06:23;;;;;;;;;;;;;;;;;;5137562;28;19934;-57
2023/12/09 05:08:50;;;;;;;;;;;;;;;;;;5137608;28;20015;-59
2023/12/09 05:11:16;;;;;;;;;;;;;;;;;;5136900;28;20404;-56
2023/12/09 05:13:43;;;;;;;;;;;;;;;;;;5137677;27;19927;-59
2023/12/09 05:16:11;;;;;;;;;;;;;;;;;;5141154;27;19999;-60
2023/12/09 05:18:37;;;;;;;;;;;;;;;;;;5141962;27;20398;-58
2023/12/09 05:21:04;;;;;;;;;;;;;;;;;;5132317;27;19927;-60
2023/12/09 05:23:31;;;;;;;;;;;;;;;;;;5141579;27;19927;-59
2023/12/09 05:25:58;;;;;;;;;;;;;;;;;;5141410;27;19977;-59
2023/12/09 05:28:24;;;;;;;;;;;;;;;;;;5141018;27;19962;-60
2023/12/09 05:30:51;;;;;;;;;;;;;;;;;;5139600;27;19971;-59
2023/12/09 05:33:19;;;;;;;;;;;;;;;;;;5140140;27;20022;-58
2023/12/09 05:35:45;;;;;;;;;;;;;;;;;;5139376;27;19930;-59
2023/12/09 05:38:12;;;;;;;;;;;;;;;;;;5135859;27;19980;-58
2023/12/09 05:40:38;;;;;;;;;;;;;;;;;;5139794;27;20355;-59
2023/12/09 05:43:05;;;;;;;;;;;;;;;;;;5142774;27;19963;-60
2023/12/09 05:45:31;;;;;;;;;;;;;;;;;;5135530;27;19967;-60
2023/12/09 05:47:58;;;;;;;;;;;;;;;;;;5140616;27;19930;-58
2023/12/09 05:50:26;;;;;;;;;;;;;;;;;;5140945;27;20478;-59
2023/12/09 05:52:52;;;;;;;;;;;;;;;;;;5140770;27;20098;-59
2023/12/09 05:55:19;;;;;;;;;;;;;;;;;;5141045;27;19927;-59
2023/12/09 05:57:45;;;;;;;;;;;;;;;;;;5140366;27;19970;-60
2023/12/09 06:00:12;;;;;;;;;;;;;;;;;;5137954;27;20314;-59
2023/12/09 06:02:39;;;;;;;;;;;;;;;;;;5133438;27;19946;-59
2023/12/09 06:05:06;;;;;;;;;;;;;;;;;;5131514;27;19963;-59
2023/12/09 06:07:34;;;;;;;;;;;;;;;;;;5141499;27;19923;-59
2023/12/09 06:10:01;;;;;;;;;;;;;;;;;;5141743;27;19930;-59
2023/12/09 06:12:27;;;;;;;;;;;;;;;;;;5141482;27;19967;-59
2023/12/09 06:14:54;;;;;;;;;;;;;;;;;;5141346;27;19931;-60
2023/12/09 06:17:20;;;;;;;;;;;;;;;;;;5141239;27;19924;-58
2023/12/09 06:19:47;;;;;;;;;;;;;;;;;;5141118;27;19971;-58
2023/12/09 06:22:13;;;;;;;;;;;;;;;;;;5140774;27;19966;-59
2023/12/09 06:24:41;;;;;;;;;;;;;;;;;;5140720;27;19958;-58
2023/12/09 06:27:07;;;;;;;;;;;;;;;;;;5139519;27;19977;-55
2023/12/09 06:29:35;;;;;;;;;;;;;;;;;;5141100;27;19982;-59
2023/12/09 06:32:01;;;;;;;;;;;;;;;;;;5140481;27;20358;-58
2023/12/09 06:34:27;;;;;;;;;;;;;;;;;;5140120;27;19974;-60
2023/12/09 06:36:54;;;;;;;;;;;;;;;;;;5140859;27;20370;-58
2023/12/09 06:39:20;;;;;;;;;;;;;;;;;;5140472;27;19962;-57
2023/12/09 06:41:49;;;;;;;;;;;;;;;;;;5138055;27;19923;-57
2023/12/09 06:44:16;;;;;;;;;;;;;;;;;;5137882;27;19923;-59
2023/12/09 06:46:42;;;;;;;;;;;;;;;;;;5140679;27;19927;-57
2023/12/09 06:49:09;;;;;;;;;;;;;;;;;;5127717;27;19970;-61
2023/12/09 06:51:35;;;;;;;;;;;;;;;;;;5135448;27;19982;-58
2023/12/09 06:54:02;;;;;;;;;;;;;;;;;;5140204;27;19974;-59
2023/12/09 06:56:29;;;;;;;;;;;;;;;;;;5139864;27;20432;-58
2023/12/09 06:58:57;;;;;;;;;;;;;;;;;;5139322;27;20352;-57
2023/12/09 07:01:24;;;;;;;;;;;;;;;;;;5138765;27;19923;-58
2023/12/09 07:03:50;;;;;;;;;;;;;;;;;;5138176;27;19971;-62
2023/12/09 07:06:18;;;;;;;;;;;;;;;;;;5130278;27;20462;-61
2023/12/09 07:08:44;;;;;;;;;;;;;;;;;;5131195;27;19923;-61
2023/12/09 07:11:11;;;;;;;;;;;;;;;;;;5125995;27;20010;-61
2023/12/09 07:13:38;;;;;;;;;;;;;;;;;;5126366;27;20014;-61
2023/12/09 07:16:08;;;;;;;;;;;;;;;;;;5134573;27;19931;-61
2023/12/09 07:18:34;;;;;;;;;;;;;;;;;;5126296;27;19930;-60
2023/12/09 07:21:01;;;;;;;;;;;;;;;;;;5134718;27;20018;-61
2023/12/09 07:23:27;;;;;;;;;;;;;;;;;;5134110;27;19976;-61
2023/12/09 07:25:55;;;;;;;;;;;;;;;;;;5125699;27;20283;-61
2023/12/09 07:28:21;;;;;;;;;;;;;;;;;;5128760;27;20405;-62
2023/12/09 07:30:48;;;;;;;;;;;;;;;;;;5122805;27;20426;-62
2023/12/09 07:33:15;;;;;;;;;;;;;;;;;;5126003;27;20002;-61
2023/12/09 07:35:42;;;;;;;;;;;;;;;;;;5125581;27;19971;-62
2023/12/09 07:38:09;;;;;;;;;;;;;;;;;;5125433;27;19930;-62
2023/12/09 07:40:35;;;;;;;;;;;;;;;;;;5131939;27;19923;-62
2023/12/09 07:43:03;;;;;;;;;;;;;;;;;;5133148;27;20077;-61
2023/12/09 07:45:30;;;;;;;;;;;;;;;;;;5133080;27;19930;-62
2023/12/09 07:47:56;;;;;;;;;;;;;;;;;;5133945;27;19970;-61
2023/12/09 07:50:24;;;;;;;;;;;;;;;;;;5134065;27;20049;-62
2023/12/09 07:52:50;;;;;;;;;;;;;;;;;;5133106;27;19976;-62
2023/12/09 07:55:17;;;;;;;;;;;;;;;;;;5121851;27;19927;-61
2023/12/09 07:57:43;;;;;;;;;;;;;;;;;;5129271;27;20393;-62
2023/12/09 08:00:10;;;;;;;;;;;;;;;;;;5123854;27;19962;-60
2023/12/09 08:02:37;;;;;;;;;;;;;;;;;;5125893;27;19977;-62
2023/12/09 08:05:04;;;;;;;;;;;;;;;;;;5130857;27;19965;-61
2023/12/09 08:07:32;;;;;;;;;;;;;;;;;;5129075;27;19924;-62
2023/12/09 08:09:58;;;;;;;;;;;;;;;;;;5127080;27;19970;-61
2023/12/09 08:12:25;;;;;;;;;;;;;;;;;;5124989;27;20006;-60
2023/12/09 08:14:51;;;;;;;;;;;;;;;;;;5135497;27;19931;-61
2023/12/09 08:17:18;;;;;;;;;;;;;;;;;;5130152;27;20434;-60
2023/12/09 08:19:44;;;;;;;;;;;;;;;;;;5128439;27;19974;-61
2023/12/09 08:22:10;;;;;;;;;;;;;;;;;;5125732;27;19962;-62
2023/12/09 08:24:40;;;;;;;;;;;;;;;;;;5132363;27;20440;-61
2023/12/09 08:27:07;;;;;;;;;;;;;;;;;;5129306;27;20382;-61
2023/12/09 08:29:33;;;;;;;;;;;;;;;;;;5128053;27;19977;-62
2023/12/09 08:32:00;;;;;;;;;;;;;;;;;;5127858;27;19924;-62
2023/12/09 08:34:26;;;;;;;;;;;;;;;;;;5129782;27;20020;-62
2023/12/09 08:36:52;;;;;;;;;;;;;;;;;;5124592;27;20316;-62
2023/12/09 08:39:22;;;;;;;;;;;;;;;;;;5121212;27;19975;-62
2023/12/09 08:41:50;;;;;;;;;;;;;;;;;;5127631;27;19923;-62
2023/12/09 08:44:16;;;;;;;;;;;;;;;;;;5127434;27;20102;-62
2023/12/09 08:46:42;;;;;;;;;;;;;;;;;;5120432;27;19966;-61
2023/12/09 08:49:09;;;;;;;;;;;;;;;;;;5119171;28;20011;-61
2023/12/09 08:51:43;;;;;;;;;;;;;;;;;;5119306;28;20014;-61
2023/12/09 08:54:10;;;;;;;;;;;;;;;;;;5112712;28;19928;-63
2023/12/09 08:56:37;;;;;;;;;;;;;;;;;;5120583;28;19962;-63
2023/12/09 08:59:07;;;;;;;;;;;;;;;;;;5118387;28;20015;-64
2023/12/09 09:01:34;;;;;;;;;;;;;;;;;;5126881;28;19973;-62
2023/12/09 09:04:01;;;;;;;;;;;;;;;;;;5132676;28;20302;-65
2023/12/09 09:06:27;;;;;;;;;;;;;;;;;;5122389;28;19969;-62
2023/12/09 09:08:53;;;;;;;;;;;;;;;;;;5118428;28;19927;-62
2023/12/09 09:11:20;;;;;;;;;;;;;;;;;;5118687;28;20012;-66
2023/12/09 09:13:47;;;;;;;;;;;;;;;;;;5125353;28;19930;-62
2023/12/09 09:16:16;;;;;;;;;;;;;;;;;;5126527;28;20011;-62
2023/12/09 09:18:43;;;;;;;;;;;;;;;;;;5123638;27;20031;-61
2023/12/09 09:21:09;;;;;;;;;;;;;;;;;;5130064;28;19923;-60
2023/12/09 09:23:36;;;;;;;;;;;;;;;;;;5133228;28;19967;-61
2023/12/09 09:26:02;;;;;;;;;;;;;;;;;;5133284;28;20390;-62
2023/12/09 09:28:29;;;;;;;;;;;;;;;;;;5132837;28;19923;-61
2023/12/09 09:30:55;;;;;;;;;;;;;;;;;;5133028;28;20015;-60
2023/12/09 09:33:23;;;;;;;;;;;;;;;;;;5132953;28;20427;-63
2023/12/09 09:35:51;;;;;;;;;;;;;;;;;;5132621;28;20007;-62
2023/12/09 09:38:17;;;;;;;;;;;;;;;;;;5132820;28;19928;-61
2023/12/09 09:40:44;;;;;;;;;;;;;;;;;;5133134;28;19935;-62
2023/12/09 09:43:14;;;;;;;;;;;;;;;;;;5132918;28;20100;-62
2023/12/09 09:45:41;;;;;;;;;;;;;;;;;;5132945;28;19970;-62
2023/12/09 09:48:12;;;;;;;;;;;;;;;;;;5132688;28;19923;-62
2023/12/09 09:50:42;;;;;;;;;;;;;;;;;;5133192;28;20405;-62
2023/12/09 09:53:09;;;;;;;;;;;;;;;;;;5133238;28;19929;-61
2023/12/09 09:55:36;;;;;;;;;;;;;;;;;;5133576;28;20018;-62
2023/12/09 09:58:02;;;;;;;;;;;;;;;;;;5133777;28;20026;-61
2023/12/09 10:00:30;;;;;;;;;;;;;;;;;;5133657;27;19923;-62
2023/12/09 10:02:57;;;;;;;;;;;;;;;;;;5136766;27;19923;-61
2023/12/09 10:05:23;;;;;;;;;;;;;;;;;;5136789;27;19923;-62
2023/12/09 10:07:53;;;;;;;;;;;;;;;;;;5136659;27;19972;-61
2023/12/09 10:10:19;;;;;;;;;;;;;;;;;;5136440;27;19996;-62
2023/12/09 10:12:46;;;;;;;;;;;;;;;;;;5136142;27;19924;-63
2023/12/09 10:15:13;;;;;;;;;;;;;;;;;;5132000;27;20291;-63
2023/12/09 10:17:39;;;;;;;;;;;;;;;;;;5115681;28;19967;-63
2023/12/09 10:20:08;;;;;;;;;;;;;;;;;;5116100;28;20343;-62
2023/12/09 10:22:35;;;;;;;;;;;;;;;;;;5115940;28;19982;-63
2023/12/09 10:25:03;;;;;;;;;;;;;;;;;;5115501;28;19927;-62
2023/12/09 10:27:29;;;;;;;;;;;;;;;;;;5115662;28;19978;-62
2023/12/09 10:29:56;;;;;;;;;;;;;;;;;;5115641;28;19970;-62
2023/12/09 10:32:23;;;;;;;;;;;;;;;;;;5115488;28;20298;-62
2023/12/09 10:34:50;;;;;;;;;;;;;;;;;;5115530;28;19975;-60
2023/12/09 10:37:17;;;;;;;;;;;;;;;;;;5115215;28;19979;-62
2023/12/09 10:39:44;;;;;;;;;;;;;;;;;;5114994;28;19923;-62
2023/12/09 10:42:12;;;;;;;;;;;;;;;;;;5114954;28;20019;-62
2023/12/09 10:44:39;;;;;;;;;;;;;;;;;;5115584;28;19967;-61
2023/12/09 10:47:06;;;;;;;;;;;;;;;;;;5115056;28;20014;-62
2023/12/09 10:49:33;;;;;;;;;;;;;;;;;;5115291;28;20371;-62
2023/12/09 10:51:59;;;;;;;;;;;;;;;;;;5114977;28;20020;-62
2023/12/09 10:54:26;;;;;;;;;;;;;;;;;;5115170;28;19924;-61
2023/12/09 10:56:52;;;;;;;;;;;;;;;;;;5114319;28;19923;-62
2023/12/09 10:59:20;;;;;;;;;;;;;;;;;;5114557;28;19971;-61
2023/12/09 11:01:47;;;;;;;;;;;;;;;;;;5114537;28;19923;-61
2023/12/09 11:04:14;;;;;;;;;;;;;;;;;;5115275;28;19966;-62
2023/12/09 11:06:42;;;;;;;;;;;;;;;;;;5114520;28;19924;-62
2023/12/09 11:09:09;;;;;;;;;;;;;;;;;;5114939;28;19959;-63
2023/12/09 11:11:36;;;;;;;;;;;;;;;;;;5114179;28;19971;-61
2023/12/09 11:14:03;;;;;;;;;;;;;;;;;;5114126;28;20018;-63
2023/12/09 11:16:31;;;;;;;;;;;;;;;;;;5114425;28;20347;-62
2023/12/09 11:18:58;;;;;;;;;;;;;;;;;;5114435;28;19976;-63
2023/12/09 11:21:25;;;;;;;;;;;;;;;;;;5114450;28;20422;-63
2023/12/09 11:23:52;;;;;;;;;;;;;;;;;;5114297;28;19976;-63
2023/12/09 11:26:20;;;;;;;;;;;;;;;;;;5114435;28;20022;-62
2023/12/09 11:28:56;;;;;;;;;;;;;;;;;;5114178;28;19924;-62
2023/12/09 11:31:33;;;;;;;;;;;;;;;;;;5113448;28;20475;-62
2023/12/09 11:34:00;;;;;;;;;;;;;;;;;;5113930;28;19923;-63
2023/12/09 11:36:27;;;;;;;;;;;;;;;;;;5113825;28;19971;-62
2023/12/09 11:38:54;;;;;;;;;;;;;;;;;;5131683;27;19974;-62
2023/12/09 11:41:20;;;;;;;;;;;;;;;;;;5127669;27;19989;-63
2023/12/09 11:43:47;;;;;;;;;;;;;;;;;;5121603;27;19968;-62
2023/12/09 11:46:14;;;;;;;;;;;;;;;;;;5121967;27;20295;-62
2023/12/09 11:48:42;;;;;;;;;;;;;;;;;;5125350;27;19962;-63
2023/12/09 11:51:08;;;;;;;;;;;;;;;;;;5133611;27;20402;-63
2023/12/09 11:53:35;;;;;;;;;;;;;;;;;;5134159;27;19923;-63
2023/12/09 11:56:02;;;;;;;;;;;;;;;;;;5133744;27;19924;-63
2023/12/09 11:58:28;;;;;;;;;;;;;;;;;;5133676;27;19931;-63
2023/12/09 12:00:55;;;;;;;;;;;;;;;;;;5133775;27;20431;-62
2023/12/09 12:03:21;;;;;;;;;;;;;;;;;;5133894;27;20006;-63
2023/12/09 12:05:49;;;;;;;;;;;;;;;;;;5133574;27;19923;-62
2023/12/09 12:08:16;;;;;;;;;;;;;;;;;;5133778;27;20006;-63
2023/12/09 12:10:42;;;;;;;;;;;;;;;;;;5133538;27;19923;-63
2023/12/09 12:13:09;;;;;;;;;;;;;;;;;;5133539;27;19923;-64
2023/12/09 12:15:35;;;;;;;;;;;;;;;;;;5133614;27;19927;-63
2023/12/09 12:18:02;;;;;;;;;;;;;;;;;;5133606;27;19975;-63
2023/12/09 12:20:28;;;;;;;;;;;;;;;;;;5133575;27;19923;-63
2023/12/09 12:22:56;;;;;;;;;;;;;;;;;;5133486;27;19924;-63
2023/12/09 12:25:25;;;;;;;;;;;;;;;;;;5132422;27;19927;-63
2023/12/09 12:27:51;;;;;;;;;;;;;;;;;;5133704;27;19988;-63
2023/12/09 12:30:18;;;;;;;;;;;;;;;;;;5133619;27;20482;-62
2023/12/09 12:32:53;;;;;;;;;;;;;;;;;;5133662;27;20489;-61
2023/12/09 12:35:19;;;;;;;;;;;;;;;;;;5133600;27;19923;-62
2023/12/09 12:37:46;;;;;;;;;;;;;;;;;;5133440;27;19927;-62
2023/12/09 12:40:14;;;;;;;;;;;;;;;;;;5133201;27;19923;-62
2023/12/09 12:42:42;;;;;;;;;;;;;;;;;;5133887;27;19923;-62
2023/12/09 12:45:17;;;;;;;;;;;;;;;;;;5133367;27;20294;-63
2023/12/09 12:47:43;;;;;;;;;;;;;;;;;;5133576;27;19923;-62
2023/12/09 12:50:10;;;;;;;;;;;;;;;;;;5132676;28;19924;-63
2023/12/09 12:52:37;;;;;;;;;;;;;;;;;;5133010;28;20023;-63
2023/12/09 12:55:04;;;;;;;;;;;;;;;;;;5132850;28;19923;-63
2023/12/09 12:57:32;;;;;;;;;;;;;;;;;;5132996;28;19924;-63
2023/12/09 12:59:58;;;;;;;;;;;;;;;;;;5127109;28;20297;-63
2023/12/09 13:02:25;;;;;;;;;;;;;;;;;;5128832;28;19924;-62
2023/12/09 13:04:51;;;;;;;;;;;;;;;;;;5132880;28;19931;-62
2023/12/09 13:07:18;;;;;;;;;;;;;;;;;;5132842;28;19974;-62
2023/12/09 13:09:45;;;;;;;;;;;;;;;;;;5132493;28;19923;-62
2023/12/09 13:12:11;;;;;;;;;;;;;;;;;;5130918;28;19930;-64
2023/12/09 13:14:39;;;;;;;;;;;;;;;;;;5131534;27;20374;-62
2023/12/09 13:17:05;;;;;;;;;;;;;;;;;;5121893;27;21250;-62
2023/12/09 13:19:32;;;;;;;;;;;;;;;;;;5128822;27;20019;-62
2023/12/09 13:21:59;;;;;;;;;;;;;;;;;;5132267;28;19924;-62
2023/12/09 13:24:25;;;;;;;;;;;;;;;;;;5133072;28;19923;-62
2023/12/09 13:26:52;;;;;;;;;;;;;;;;;;5132952;28;19947;-62
2023/12/09 13:29:18;;;;;;;;;;;;;;;;;;5133174;28;19968;-62
2023/12/09 13:31:46;;;;;;;;;;;;;;;;;;5132945;28;19945;-62
2023/12/09 13:34:13;;;;;;;;;;;;;;;;;;5132923;28;19923;-63
2023/12/09 13:36:39;;;;;;;;;;;;;;;;;;5135562;27;19985;-62
2023/12/09 13:39:11;;;;;;;;;;;;;;;;;;5137038;27;19987;-62
2023/12/09 13:41:37;;;;;;;;;;;;;;;;;;5136960;27;20009;-62
2023/12/09 13:44:04;;;;;;;;;;;;;;;;;;5136585;27;20383;-63
2023/12/09 13:46:31;;;;;;;;;;;;;;;;;;5135268;27;19970;-63
2023/12/09 13:48:58;;;;;;;;;;;;;;;;;;5136666;27;20139;-63
2023/12/09 13:51:25;;;;;;;;;;;;;;;;;;5130348;27;19927;-63
2023/12/09 13:53:53;;;;;;;;;;;;;;;;;;5136247;27;19968;-63
2023/12/09 13:56:20;;;;;;;;;;;;;;;;;;5136776;27;20362;-62
2023/12/09 13:58:46;;;;;;;;;;;;;;;;;;5136593;27;19923;-63
2023/12/09 14:01:13;;;;;;;;;;;;;;;;;;5136695;27;19945;-63
2023/12/09 14:03:40;;;;;;;;;;;;;;;;;;5136461;27;19923;-60
2023/12/09 14:06:08;;;;;;;;;;;;;;;;;;5136463;27;19967;-62
2023/12/09 14:08:34;;;;;;;;;;;;;;;;;;5136494;27;19924;-62
2023/12/09 14:11:01;;;;;;;;;;;;;;;;;;5136173;27;19971;-62
2023/12/09 14:13:29;;;;;;;;;;;;;;;;;;5136617;27;19974;-63
2023/12/09 14:15:55;;;;;;;;;;;;;;;;;;5136275;27;19924;-64
2023/12/09 14:18:22;;;;;;;;;;;;;;;;;;5136317;27;19972;-64
2023/12/09 14:20:48;;;;;;;;;;;;;;;;;;5135942;27;19949;-64
2023/12/09 14:23:16;;;;;;;;;;;;;;;;;;5136150;27;20019;-62
2023/12/09 14:25:43;;;;;;;;;;;;;;;;;;5135674;27;19976;-64
2023/12/09 14:28:11;;;;;;;;;;;;;;;;;;5135983;27;19957;-61
2023/12/09 14:30:37;;;;;;;;;;;;;;;;;;5135474;27;19928;-63
2023/12/09 14:33:04;;;;;;;;;;;;;;;;;;5135777;27;19987;-63
2023/12/09 14:35:31;;;;;;;;;;;;;;;;;;5135851;27;19928;-64
2023/12/09 14:37:58;;;;;;;;;;;;;;;;;;5135925;27;19968;-63
2023/12/09 14:40:26;;;;;;;;;;;;;;;;;;5135711;27;20518;-63
2023/12/09 14:42:52;;;;;;;;;;;;;;;;;;5135414;27;19924;-63
2023/12/09 14:45:19;;;;;;;;;;;;;;;;;;5135463;27;19939;-64
2023/12/09 14:47:47;;;;;;;;;;;;;;;;;;5134636;27;19923;-63
2023/12/09 14:50:13;;;;;;;;;;;;;;;;;;5135379;27;19930;-63
2023/12/09 14:52:41;;;;;;;;;;;;;;;;;;5135460;27;19987;-64
2023/12/09 14:55:08;;;;;;;;;;;;;;;;;;5135190;27;19923;-65
2023/12/09 14:57:36;;;;;;;;;;;;;;;;;;5134768;27;19981;-62
2023/12/09 15:00:04;;;;;;;;;;;;;;;;;;5135104;27;19928;-64
2023/12/09 15:02:30;;;;;;;;;;;;;;;;;;5135429;27;20021;-62
2023/12/09 15:04:57;;;;;;;;;;;;;;;;;;5135138;27;19949;-63
2023/12/09 15:07:23;;;;;;;;;;;;;;;;;;5134859;27;19923;-63
2023/12/09 15:09:50;;;;;;;;;;;;;;;;;;5134909;27;19967;-63
2023/12/09 15:12:17;;;;;;;;;;;;;;;;;;5134797;27;19924;-62
2023/12/09 15:14:45;;;;;;;;;;;;;;;;;;5134746;27;19976;-62
2023/12/09 15:17:12;;;;;;;;;;;;;;;;;;5134703;27;19927;-63
2023/12/09 15:19:38;;;;;;;;;;;;;;;;;;5134999;27;19975;-63
2023/12/09 15:22:05;;;;;;;;;;;;;;;;;;5134804;27;19976;-63
2023/12/09 15:24:31;;;;;;;;;;;;;;;;;;5135006;27;20443;-62
2023/12/09 15:26:58;;;;;;;;;;;;;;;;;;5134636;27;20333;-64
2023/12/09 15:29:24;;;;;;;;;;;;;;;;;;5134608;27;19969;-62
2023/12/09 15:31:52;;;;;;;;;;;;;;;;;;5134372;27;19969;-64
2023/12/09 15:34:19;;;;;;;;;;;;;;;;;;5135093;27;20392;-64
2023/12/09 15:36:47;;;;;;;;;;;;;;;;;;5134748;27;20381;-63
2023/12/09 15:39:16;;;;;;;;;;;;;;;;;;5134663;27;19924;-64
2023/12/09 15:41:42;;;;;;;;;;;;;;;;;;5134533;27;20390;-61
2023/12/09 15:44:09;;;;;;;;;;;;;;;;;;5134092;27;19935;-63
2023/12/09 15:46:35;;;;;;;;;;;;;;;;;;5134216;27;19946;-63
2023/12/09 15:49:03;;;;;;;;;;;;;;;;;;5134279;27;19923;-62
2023/12/09 15:51:30;;;;;;;;;;;;;;;;;;5134424;27;19965;-62
2023/12/09 15:53:56;;;;;;;;;;;;;;;;;;5133873;27;19923;-64
2023/12/09 15:56:23;;;;;;;;;;;;;;;;;;5134063;27;19954;-63
2023/12/09 15:58:50;;;;;;;;;;;;;;;;;;5133889;27;19968;-63
2023/12/09 16:01:17;;;;;;;;;;;;;;;;;;5134207;27;19923;-63
2023/12/09 16:03:43;;;;;;;;;;;;;;;;;;5134035;27;20436;-62
2023/12/09 16:06:11;;;;;;;;;;;;;;;;;;5122103;27;19978;-62
2023/12/09 16:08:38;;;;;;;;;;;;;;;;;;5124511;27;19987;-64
2023/12/09 16:11:05;;;;;;;;;;;;;;;;;;5120503;27;19969;-64
2023/12/09 16:13:33;;;;;;;;;;;;;;;;;;5126852;27;19923;-59
2023/12/09 16:16:00;;;;;;;;;;;;;;;;;;5126112;27;19923;-62
2023/12/09 16:18:26;;;;;;;;;;;;;;;;;;5125634;27;19924;-62
2023/12/09 16:20:53;;;;;;;;;;;;;;;;;;5126021;27;19923;-62
2023/12/09 16:23:21;;;;;;;;;;;;;;;;;;5128785;27;20275;-61
2023/12/09 16:25:47;;;;;;;;;;;;;;;;;;5127120;27;19923;-62
2023/12/09 16:28:14;;;;;;;;;;;;;;;;;;5127524;27;19930;-62
2023/12/09 16:30:40;;;;;;;;;;;;;;;;;;5122982;27;20435;-63
2023/12/09 16:33:07;;;;;;;;;;;;;;;;;;5124296;27;19938;-62
2023/12/09 16:35:34;;;;;;;;;;;;;;;;;;5118201;27;19947;-64
2023/12/09 16:38:00;;;;;;;;;;;;;;;;;;5132191;27;20344;-63
2023/12/09 16:40:29;;;;;;;;;;;;;;;;;;5133488;27;19931;-65
2023/12/09 16:42:55;;;;;;;;;;;;;;;;;;5133436;27;20018;-63